Time;durP1;ratioP1;P1;durP2;ratioP2;P2;SDS_P1;SDS_P2;PMS_P1;PMS_P2;Temp;Humidity;BMP_temperature;BMP_pressure;BME280_temperature;BME280_humidity;BME280_pressure;Samples;Min_cycle;Max_cycle;Signal;HPM_P1;HPM_P2
2021/12/25 00:35:05;;;;;;;12.13;7.60;;;;;;;17.71;52.67;98292.63;5259001;23;20065;-76
2021/12/25 00:37:31;;;;;;;10.95;7.72;;;;;;;17.69;52.79;98289.22;4977543;28;20113;-76
2021/12/25 00:39:56;;;;;;;11.63;7.60;;;;;;;17.67;52.68;98283.22;4961174;28;20113;-75
2021/12/25 00:42:22;;;;;;;10.80;7.68;;;;;;;17.70;52.63;98277.75;4978489;28;20050;-76
2021/12/25 00:44:48;;;;;;;11.55;7.57;;;;;;;17.70;52.58;98272.47;4973757;28;20031;-77
2021/12/25 00:47:14;;;;;;;10.57;7.32;;;;;;;17.63;52.77;98271.16;4941009;29;20027;-76
2021/12/25 00:49:40;;;;;;;10.63;7.32;;;;;;;17.64;52.95;98267.63;4940696;29;20422;-76
2021/12/25 00:52:05;;;;;;;11.05;7.30;;;;;;;17.69;52.71;98269.94;4940835;29;20042;-76
2021/12/25 00:54:31;;;;;;;11.15;7.38;;;;;;;17.69;52.81;98275.22;4957665;28;20030;-76
2021/12/25 00:56:57;;;;;;;10.35;7.68;;;;;;;17.71;52.67;98270.66;4941242;29;20469;-76
2021/12/25 00:59:22;;;;;;;9.57;6.65;;;;;;;17.65;52.69;98264.03;4941571;29;20431;-77
2021/12/25 01:01:48;;;;;;;9.77;6.80;;;;;;;17.70;52.77;98261.06;4958639;29;20060;-77
2021/12/25 01:04:13;;;;;;;10.52;7.05;;;;;;;17.64;52.79;98257.06;4958832;28;20039;-76
2021/12/25 01:06:39;;;;;;;9.20;6.43;;;;;;;17.69;52.52;98257.56;4957437;28;20019;-77
2021/12/25 01:09:06;;;;;;;9.10;6.65;;;;;;;17.71;52.52;98246.94;4957524;28;20438;-77
2021/12/25 01:11:32;;;;;;;12.05;6.50;;;;;;;17.73;52.63;98244.19;4957508;29;20443;-76
2021/12/25 01:14:06;;;;;;;9.98;6.35;;;;;;;17.70;52.46;98235.53;4940815;29;20485;-76
2021/12/25 01:29:44;;;;;;;9.57;6.25;;;;;;;17.60;53.03;98247.66;4957579;29;20023;-75
2021/12/25 01:48:24;;;;;;;8.50;6.28;;;;;;;17.62;53.15;98253.66;4958013;28;20098;-76
2021/12/25 01:50:50;;;;;;;9.15;6.07;;;;;;;17.60;53.54;98255.56;4958569;29;20023;-76
2021/12/25 01:53:16;;;;;;;8.52;6.22;;;;;;;17.59;53.48;98251.25;4958274;29;20035;-76
2021/12/25 01:55:42;;;;;;;8.82;5.88;;;;;;;17.57;53.56;98230.22;4957328;28;20067;-76
2021/12/25 01:58:08;;;;;;;8.45;5.95;;;;;;;17.67;53.29;98209.34;4957697;28;20020;-77
2021/12/25 02:01:06;;;;;;;10.52;7.00;;;;;;;17.75;52.78;98205.34;4957910;28;20075;-74
2021/12/25 02:03:32;;;;;;;8.88;5.47;;;;;;;17.77;52.85;98224.56;4932159;29;20051;-74
2021/12/25 02:05:59;;;;;;;8.27;5.80;;;;;;;17.73;52.79;98246.84;4958321;28;20027;-74
2021/12/25 02:08:25;;;;;;;8.77;5.68;;;;;;;17.67;53.25;98280.59;4958601;28;20087;-75
2021/12/25 02:10:51;;;;;;;7.75;5.35;;;;;;;17.69;53.02;98270.75;4957814;29;20042;-75
2021/12/25 02:13:18;;;;;;;9.27;5.82;;;;;;;17.67;53.14;98254.19;4958388;28;20110;-75
2021/12/25 02:15:48;;;;;;;7.03;5.18;;;;;;;17.69;53.24;98247.03;4940431;29;20038;-74
2021/12/25 02:18:21;;;;;;;8.77;5.85;;;;;;;17.70;53.26;98255.78;4959355;28;20027;-75
2021/12/25 02:21:01;;;;;;;8.02;5.38;;;;;;;17.65;53.40;98253.47;4968112;28;20031;-75
2021/12/25 02:23:27;;;;;;;8.85;5.97;;;;;;;17.73;52.98;98236.28;4957467;29;20339;-75
2021/12/25 02:25:55;;;;;;;8.80;6.45;;;;;;;17.68;53.11;98216.31;4941180;29;20041;-76
2021/12/25 02:28:23;;;;;;;9.95;5.80;;;;;;;17.67;53.08;98193.53;4956586;28;20027;-75
2021/12/25 02:30:53;;;;;;;9.93;6.15;;;;;;;17.74;52.96;98193.13;4940120;29;20114;-75
2021/12/25 02:33:19;;;;;;;9.45;6.53;;;;;;;17.74;53.17;98203.66;4956990;28;20027;-75
2021/12/25 02:35:45;;;;;;;10.82;6.72;;;;;;;17.78;52.67;98207.78;4939677;29;20059;-75
2021/12/25 02:38:11;;;;;;;10.07;6.43;;;;;;;17.76;52.99;98207.03;4956846;28;20027;-75
2021/12/25 02:40:37;;;;;;;8.13;6.28;;;;;;;17.78;52.72;98210.44;4957294;29;20034;-75
2021/12/25 02:43:03;;;;;;;10.10;6.78;;;;;;;17.76;53.10;98212.31;4958461;29;20027;-76
2021/12/25 02:45:29;;;;;;;9.95;6.13;;;;;;;17.77;53.06;98214.03;4956391;28;20031;-75
2021/12/25 02:47:56;;;;;;;9.27;6.63;;;;;;;17.77;53.05;98224.56;4939342;29;20462;-74
2021/12/25 02:50:31;;;;;;;9.25;6.38;;;;;;;17.74;52.85;98228.28;4939553;28;20062;-75
2021/12/25 02:53:00;;;;;;;8.15;5.90;;;;;;;17.73;52.94;98238.91;4960275;29;20162;-75
2021/12/25 02:55:28;;;;;;;8.27;5.78;;;;;;;17.78;53.15;98247.38;4943156;29;20158;-75
2021/12/25 02:57:54;;;;;;;7.22;5.47;;;;;;;17.78;53.11;98258.75;4961416;29;20082;-75
2021/12/25 03:00:23;;;;;;;7.70;5.13;;;;;;;17.78;53.08;98257.94;4960439;28;20418;-75
2021/12/25 03:02:48;;;;;;;7.13;4.72;;;;;;;17.76;52.95;98251.88;4943101;29;20035;-75
2021/12/25 03:05:14;;;;;;;7.18;5.20;;;;;;;17.79;53.14;98238.50;4942942;29;20027;-75
2021/12/25 03:07:40;;;;;;;7.40;5.13;;;;;;;17.77;53.12;98235.13;4960176;29;20035;-75
2021/12/25 03:10:08;;;;;;;6.68;4.72;;;;;;;17.79;53.02;98233.22;4960255;29;20398;-75
2021/12/25 03:12:48;;;;;;;6.20;4.75;;;;;;;17.82;53.00;98217.19;4947518;29;20023;-75
2021/12/25 03:15:17;;;;;;;6.82;4.32;;;;;;;17.82;53.04;98217.19;4970059;28;20031;-75
2021/12/25 03:17:44;;;;;;;7.38;5.63;;;;;;;17.78;53.35;98215.72;4943363;29;20062;-75
2021/12/25 03:20:11;;;;;;;8.10;4.70;;;;;;;17.80;53.03;98208.53;4944642;28;20089;-75
2021/12/25 03:22:38;;;;;;;6.38;4.60;;;;;;;17.83;53.18;98218.88;4959580;29;20031;-75
2021/12/25 03:25:08;;;;;;;8.30;5.07;;;;;;;17.79;53.28;98209.47;4959828;28;20046;-75
2021/12/25 03:27:39;;;;;;;6.47;4.35;;;;;;;17.84;53.04;98215.28;4942652;29;20031;-75
2021/12/25 03:30:06;;;;;;;6.72;4.50;;;;;;;17.82;53.01;98201.38;4959998;29;20062;-75
2021/12/25 03:32:32;;;;;;;6.47;4.38;;;;;;;17.81;53.34;98200.50;4960273;28;20027;-75
2021/12/25 03:34:57;;;;;;;7.63;4.50;;;;;;;17.80;53.23;98198.81;4960419;28;20066;-75
2021/12/25 03:37:23;;;;;;;7.72;4.82;;;;;;;17.84;53.29;98191.53;4961150;29;20466;-75
2021/12/25 03:39:48;;;;;;;6.72;4.63;;;;;;;17.83;53.48;98189.88;4944496;29;20138;-75
2021/12/25 03:42:14;;;;;;;6.20;4.35;;;;;;;17.88;52.90;98195.69;4959881;29;20106;-75
2021/12/25 03:44:40;;;;;;;7.53;4.53;;;;;;;17.88;53.23;98190.41;4943454;29;20031;-76
2021/12/25 03:47:23;;;;;;;6.53;4.32;;;;;;;17.89;53.03;98194.72;4959035;28;20422;-76
2021/12/25 03:58:05;;;;;;;7.68;4.80;;;;;;;17.86;53.43;98176.44;4960847;28;20097;-75
2021/12/25 04:00:32;;;;;;;6.60;4.55;;;;;;;17.86;53.25;98187.00;4941807;29;20516;-75
2021/12/25 04:03:03;;;;;;;7.80;4.90;;;;;;;17.88;53.28;98179.84;4941177;29;20035;-75
2021/12/25 04:05:32;;;;;;;6.47;4.60;;;;;;;17.89;53.32;98172.75;4959204;28;20026;-75
2021/12/25 04:08:06;;;;;;;6.72;4.60;;;;;;;17.85;53.51;98165.06;4952336;29;20022;-75
2021/12/25 04:10:37;;;;;;;6.68;4.70;;;;;;;17.85;53.24;98170.34;4962397;29;20039;-75
2021/12/25 04:13:08;;;;;;;7.35;5.30;;;;;;;17.81;53.25;98171.50;4942076;29;20023;-75
2021/12/25 04:15:34;;;;;;;7.45;4.70;;;;;;;17.88;53.27;98184.25;4959016;28;20035;-75
2021/12/25 04:18:00;;;;;;;6.60;4.78;;;;;;;17.87;53.13;98187.84;4942718;29;20497;-75
2021/12/25 04:20:27;;;;;;;7.20;5.25;;;;;;;17.85;53.33;98190.59;4941065;28;20110;-75
2021/12/25 04:25:26;;;;;;;6.88;4.65;;;;;;;17.85;53.27;98194.09;4958003;28;20094;-75
2021/12/25 04:27:53;;;;;;;7.60;5.18;;;;;;;17.88;53.37;98203.59;4958322;29;20031;-75
2021/12/25 04:30:28;;;;;;;8.32;5.30;;;;;;;17.86;53.31;98197.56;4958108;29;20027;-75
2021/12/25 05:05:43;;;;;;;7.45;5.40;;;;;;;17.90;52.73;98171.78;4958733;28;20058;-75
2021/12/25 05:08:09;;;;;;;8.23;5.53;;;;;;;17.84;53.05;98178.34;4959043;29;20378;-75
2021/12/25 05:10:35;;;;;;;7.60;5.55;;;;;;;17.87;53.30;98174.66;4942534;29;20093;-75
2021/12/25 05:13:00;;;;;;;8.07;5.20;;;;;;;17.87;52.90;98177.31;4960706;29;20023;-75
2021/12/25 05:15:26;;;;;;;8.18;5.57;;;;;;;17.86;53.21;98171.16;4957547;28;20038;-75
2021/12/25 05:17:51;;;;;;;8.25;5.90;;;;;;;17.90;52.94;98167.38;4958304;29;20498;-75
2021/12/25 05:20:18;;;;;;;8.25;5.68;;;;;;;17.89;52.96;98173.59;4957537;29;20031;-75
2021/12/25 05:22:44;;;;;;;7.10;5.45;;;;;;;17.91;53.08;98166.41;4940174;29;20067;-75
2021/12/25 05:25:11;;;;;;;8.10;5.95;;;;;;;17.90;52.96;98161.25;4957055;28;20031;-75
2021/12/25 05:27:37;;;;;;;7.88;6.00;;;;;;;17.90;52.81;98167.38;4957127;29;20035;-75
2021/12/25 05:30:04;;;;;;;9.23;6.15;;;;;;;17.89;53.01;98165.69;4957032;28;20110;-75
2021/12/25 05:32:29;;;;;;;9.48;6.32;;;;;;;17.92;52.88;98162.00;4957098;29;20045;-75
2021/12/25 05:34:55;;;;;;;8.95;6.05;;;;;;;17.89;52.88;98160.41;4957594;28;20526;-76
2021/12/25 05:37:21;;;;;;;6.95;5.45;;;;;;;17.83;53.32;98160.84;4941702;29;20031;-75
2021/12/25 05:39:50;;;;;;;7.70;5.43;;;;;;;17.88;52.90;98174.56;4957086;29;20110;-75
2021/12/25 05:42:22;;;;;;;7.20;5.13;;;;;;;17.83;53.14;98169.56;4939905;28;20043;-75
2021/12/25 05:44:48;;;;;;;7.68;5.63;;;;;;;17.81;53.30;98168.00;4957168;28;20033;-75
2021/12/25 05:47:14;;;;;;;8.98;5.60;;;;;;;17.83;53.46;98174.84;4957446;29;20031;-75
2021/12/25 05:49:40;;;;;;;7.38;5.20;;;;;;;17.82;53.12;98175.81;4940279;29;20181;-75
2021/12/25 05:52:06;;;;;;;8.25;5.22;;;;;;;17.84;53.35;98178.34;4958150;28;20372;-75
2021/12/25 05:54:31;;;;;;;8.38;5.55;;;;;;;17.85;53.32;98183.53;4958768;28;20054;-75
2021/12/25 05:56:57;;;;;;;9.20;6.28;;;;;;;17.88;53.02;98179.84;4970694;29;20042;-75
2021/12/25 05:59:22;;;;;;;8.35;5.63;;;;;;;17.87;53.23;98167.56;4960709;29;20078;-75
2021/12/25 06:01:48;;;;;;;8.10;5.47;;;;;;;17.89;53.04;98173.59;4956786;28;20106;-75
2021/12/25 06:04:14;;;;;;;6.82;4.85;;;;;;;17.88;53.28;98178.97;4956985;28;20065;-75
2021/12/25 06:06:40;;;;;;;7.65;5.45;;;;;;;17.88;53.08;98178.97;4957022;28;20062;-75
2021/12/25 06:09:07;;;;;;;6.80;4.88;;;;;;;17.84;53.11;98173.91;4939777;29;20027;-74
2021/12/25 06:11:35;;;;;;;8.27;5.88;;;;;;;17.80;53.26;98176.88;4939876;29;20038;-74
2021/12/25 06:14:17;;;;;;;7.90;5.40;;;;;;;17.81;53.15;98174.13;4957347;28;20027;-75
2021/12/25 06:16:43;;;;;;;6.38;5.30;;;;;;;17.87;52.97;98172.03;4958008;29;20027;-75
2021/12/25 06:19:09;;;;;;;6.97;5.13;;;;;;;17.83;53.26;98184.59;4958744;29;20035;-75
2021/12/25 06:21:34;;;;;;;7.97;4.93;;;;;;;17.85;53.32;98174.75;4940862;29;20452;-75
2021/12/25 06:24:02;;;;;;;7.47;4.82;;;;;;;17.87;53.05;98178.13;4957524;28;20038;-75
2021/12/25 06:26:28;;;;;;;7.20;5.47;;;;;;;17.90;53.25;98175.28;4958944;28;20491;-75
2021/12/25 06:28:55;;;;;;;7.95;4.88;;;;;;;17.90;53.04;98177.94;4961296;29;20070;-75
2021/12/25 06:31:21;;;;;;;9.20;5.60;;;;;;;17.85;53.44;98175.63;4944594;29;20027;-75
2021/12/25 06:33:47;;;;;;;7.95;4.97;;;;;;;17.87;52.99;98182.56;4944459;29;20031;-75
2021/12/25 06:36:12;;;;;;;6.88;4.40;;;;;;;17.87;53.18;98182.56;4961749;28;20051;-75
2021/12/25 06:38:40;;;;;;;6.93;4.88;;;;;;;17.88;53.33;98192.19;4963048;28;20027;-75
2021/12/25 06:41:06;;;;;;;7.55;4.93;;;;;;;17.84;53.32;98195.00;4945800;29;20031;-75
2021/12/25 06:43:31;;;;;;;6.38;4.47;;;;;;;17.84;53.34;98195.00;4962083;28;20070;-75
2021/12/25 06:45:57;;;;;;;5.78;4.53;;;;;;;17.84;53.45;98184.47;4960273;28;20027;-75
2021/12/25 06:48:22;;;;;;;7.65;5.07;;;;;;;17.85;53.59;98195.88;4963235;29;20062;-74
2021/12/25 06:50:48;;;;;;;6.70;4.80;;;;;;;17.84;53.53;98200.28;4973995;29;20038;-75
2021/12/25 06:53:14;;;;;;;6.63;4.75;;;;;;;17.89;53.16;98212.34;4965911;28;20037;-75
2021/12/25 06:55:39;;;;;;;5.80;4.15;;;;;;;17.89;53.64;98222.88;4960420;28;20066;-75
2021/12/25 06:58:05;;;;;;;7.10;4.35;;;;;;;17.91;53.33;98227.13;4961281;29;20126;-74
2021/12/25 07:00:31;;;;;;;6.75;4.85;;;;;;;17.91;53.48;98227.13;4960450;29;20038;-75
2021/12/25 07:02:57;;;;;;;7.35;4.88;;;;;;;17.89;53.46;98222.88;4959616;29;20109;-75
2021/12/25 07:05:24;;;;;;;6.30;4.35;;;;;;;17.88;53.65;98222.06;4959533;28;20038;-75
2021/12/25 07:07:50;;;;;;;7.10;4.40;;;;;;;17.89;53.32;98223.75;4959853;29;20458;-75
2021/12/25 07:10:16;;;;;;;6.22;4.32;;;;;;;17.88;53.36;98232.63;4942763;29;20381;-75
2021/12/25 07:12:46;;;;;;;6.95;4.60;;;;;;;17.90;53.43;98241.28;4943217;29;20032;-75
2021/12/25 07:15:11;;;;;;;6.65;4.57;;;;;;;17.89;53.51;98247.50;4944041;29;20023;-75
2021/12/25 07:17:37;;;;;;;6.88;4.75;;;;;;;17.90;53.29;98245.69;4959822;29;20038;-75
2021/12/25 07:20:03;;;;;;;6.70;4.68;;;;;;;17.90;53.44;98246.53;4959443;29;20391;-75
2021/12/25 07:22:30;;;;;;;5.97;4.25;;;;;;;17.88;53.57;98253.72;4959369;28;20031;-75
2021/12/25 07:24:55;;;;;;;6.43;4.50;;;;;;;17.87;53.71;98246.75;4959440;28;20115;-75
2021/12/25 07:27:21;;;;;;;8.07;5.13;;;;;;;17.91;53.19;98248.22;4959472;29;20454;-75
2021/12/25 07:29:47;;;;;;;6.93;4.78;;;;;;;17.93;53.06;98245.50;4942659;29;20374;-75
2021/12/25 07:32:12;;;;;;;7.22;4.95;;;;;;;17.91;53.55;98235.03;4959733;29;20023;-75
2021/12/25 07:34:40;;;;;;;7.03;4.90;;;;;;;17.93;53.27;98230.50;4943052;29;20035;-75
2021/12/25 07:37:06;;;;;;;7.82;5.15;;;;;;;17.91;53.11;98237.69;4960660;28;20031;-75
2021/12/25 07:39:32;;;;;;;7.50;5.00;;;;;;;17.92;53.55;98238.53;4959213;29;20097;-75
2021/12/25 07:41:57;;;;;;;7.45;5.53;;;;;;;17.91;53.32;98232.41;4942362;29;20035;-75
2021/12/25 07:44:23;;;;;;;8.07;4.78;;;;;;;17.92;53.38;98239.34;4944280;28;20510;-75
2021/12/25 07:46:48;;;;;;;6.50;4.40;;;;;;;17.89;53.29;98239.59;4954784;29;20618;-75
2021/12/25 07:49:20;;;;;;;6.85;4.97;;;;;;;17.87;53.49;98240.63;4942259;29;20189;-75
2021/12/25 07:51:47;;;;;;;6.45;4.72;;;;;;;17.90;53.19;98236.00;4959826;28;20031;-75
2021/12/25 07:54:12;;;;;;;6.38;4.40;;;;;;;17.87;53.38;98249.38;4959417;28;20027;-75
2021/12/25 07:56:39;;;;;;;7.25;4.70;;;;;;;17.87;53.25;98245.91;4960684;29;20042;-75
2021/12/25 07:59:05;;;;;;;6.72;4.97;;;;;;;17.88;53.42;98242.31;4961045;29;20513;-75
2021/12/25 08:01:34;;;;;;;6.32;4.80;;;;;;;17.88;53.10;98252.88;4959370;29;20431;-75
2021/12/25 08:04:01;;;;;;;6.28;4.47;;;;;;;17.86;53.74;98250.31;4942514;28;20041;-75
2021/12/25 08:06:28;;;;;;;5.95;4.28;;;;;;;17.86;53.50;98252.97;4960466;28;20042;-77
2021/12/25 08:08:56;;;;;;;6.28;4.45;;;;;;;17.85;53.76;98259.19;4960401;29;20027;-75
2021/12/25 08:11:22;;;;;;;5.78;4.20;;;;;;;17.85;53.34;98265.34;4959786;29;20028;-75
2021/12/25 08:13:48;;;;;;;6.90;4.10;;;;;;;17.88;53.58;98253.72;4959652;29;20031;-75
2021/12/25 08:16:13;;;;;;;6.82;4.43;;;;;;;17.90;53.43;98256.25;4958931;28;20034;-75
2021/12/25 08:18:39;;;;;;;6.15;4.30;;;;;;;17.89;53.69;98252.78;4943031;29;20031;-76
2021/12/25 08:21:05;;;;;;;6.97;4.30;;;;;;;17.89;53.58;98260.69;4943100;29;20039;-76
2021/12/25 08:23:33;;;;;;;6.00;4.53;;;;;;;17.91;53.50;98264.06;4958198;29;20031;-75
2021/12/25 08:26:00;;;;;;;6.93;4.57;;;;;;;17.94;53.90;98263.88;4941243;29;20027;-75
2021/12/25 08:28:26;;;;;;;7.57;4.55;;;;;;;17.94;54.09;98260.38;4956923;29;20066;-74
2021/12/25 08:30:51;;;;;;;6.20;4.43;;;;;;;17.93;54.72;98262.16;4961425;28;20442;-75
2021/12/25 08:33:17;;;;;;;7.15;4.55;;;;;;;17.95;54.65;98255.00;4941489;29;20117;-76
2021/12/25 08:35:43;;;;;;;8.55;4.75;;;;;;;17.95;54.73;98265.56;4959962;28;20055;-75
2021/12/25 08:38:11;;;;;;;6.68;4.80;;;;;;;17.97;54.57;98263.66;4969191;28;20037;-76
2021/12/25 08:40:38;;;;;;;8.20;4.72;;;;;;;17.97;54.77;98266.28;4970261;28;20106;-74
2021/12/25 08:43:04;;;;;;;6.97;4.35;;;;;;;17.98;54.68;98265.34;4970677;28;20109;-75
2021/12/25 08:45:42;;;;;;;7.30;4.72;;;;;;;18.00;54.68;98264.41;4971408;28;20089;-75
2021/12/25 08:48:18;;;;;;;8.90;5.68;;;;;;;18.00;54.62;98261.78;4957444;29;20049;-75
2021/12/25 08:50:49;;;;;;;6.20;4.70;;;;;;;18.00;54.80;98267.88;4957637;29;20027;-75
2021/12/25 08:53:16;;;;;;;8.85;5.03;;;;;;;18.04;54.69;98263.22;4956888;29;20042;-75
2021/12/25 08:55:42;;;;;;;7.43;4.65;;;;;;;18.04;54.77;98268.50;4938060;29;20074;-75
2021/12/25 08:58:08;;;;;;;8.10;4.78;;;;;;;18.06;54.71;98266.66;4938708;29;20122;-75
2021/12/25 09:00:34;;;;;;;8.60;4.80;;;;;;;18.05;54.58;98268.41;4957602;29;20098;-74
2021/12/25 09:03:00;;;;;;;10.20;5.60;;;;;;;18.05;54.68;98262.28;4956605;29;20059;-75
2021/12/25 09:05:26;;;;;;;9.75;4.53;;;;;;;18.05;54.78;98267.56;4956363;29;20129;-75
2021/12/25 09:07:51;;;;;;;11.60;5.43;;;;;;;18.07;54.71;98263.06;4939720;29;20115;-75
2021/12/25 09:10:18;;;;;;;7.80;5.18;;;;;;;18.07;54.34;98265.72;4956748;29;20031;-75
2021/12/25 09:12:45;;;;;;;8.98;5.57;;;;;;;18.06;54.89;98267.50;4956749;29;20035;-75
2021/12/25 09:15:12;;;;;;;8.45;5.13;;;;;;;18.04;54.91;98266.72;4955755;28;20070;-75
2021/12/25 09:17:39;;;;;;;9.02;5.57;;;;;;;18.05;54.62;98264.91;4938626;29;20086;-75
2021/12/25 09:20:06;;;;;;;7.47;5.53;;;;;;;18.06;54.45;98256.09;4955957;29;20038;-74
2021/12/25 09:22:33;;;;;;;8.82;5.68;;;;;;;18.06;54.89;98256.09;4956276;29;20023;-74
2021/12/25 09:24:59;;;;;;;8.63;5.70;;;;;;;18.06;54.83;98262.22;4939554;29;20045;-76
2021/12/25 09:27:25;;;;;;;9.27;5.75;;;;;;;18.07;54.62;98263.06;4937212;29;20454;-76
2021/12/25 09:29:50;;;;;;;9.02;5.28;;;;;;;18.05;54.82;98257.00;4939894;29;20035;-77
2021/12/25 09:32:16;;;;;;;8.93;5.93;;;;;;;18.10;54.58;98252.28;4966931;28;20092;-78
2021/12/25 09:34:41;;;;;;;8.90;6.18;;;;;;;18.08;54.73;98255.06;4944994;29;20058;-74
2021/12/25 09:37:07;;;;;;;9.05;6.35;;;;;;;18.10;54.58;98253.16;4965714;28;20085;-74
2021/12/25 09:39:33;;;;;;;10.55;6.57;;;;;;;18.10;54.63;98252.28;4940912;29;20031;-75
2021/12/25 09:41:59;;;;;;;10.05;6.53;;;;;;;18.11;54.41;98251.34;4959347;29;20039;-76
2021/12/25 09:44:26;;;;;;;11.32;6.80;;;;;;;18.11;54.40;98260.13;4960963;28;20023;-77
2021/12/25 09:46:52;;;;;;;7.32;5.47;;;;;;;18.12;54.16;98260.97;4958682;29;20031;-75
2021/12/25 09:49:17;;;;;;;11.00;6.60;;;;;;;18.08;54.70;98254.19;4956623;29;20027;-75
2021/12/25 09:51:43;;;;;;;10.90;5.82;;;;;;;18.10;54.67;98258.44;4939502;29;20114;-75
2021/12/25 09:54:15;;;;;;;9.52;6.95;;;;;;;18.09;54.87;98255.88;4958477;28;20442;-77
2021/12/25 09:56:43;;;;;;;10.27;6.40;;;;;;;18.06;54.65;98250.81;4957418;29;20110;-76
2021/12/25 09:59:10;;;;;;;10.10;5.57;;;;;;;18.09;54.52;98250.59;4957040;29;20031;-76
2021/12/25 10:01:54;;;;;;;13.75;7.13;;;;;;;18.07;54.92;98247.25;4958749;28;20046;-76
2021/12/25 10:04:40;;;;;;;8.88;6.03;;;;;;;18.06;54.79;98256.09;4961456;28;20134;-76
2021/12/25 10:07:20;;;;;;;10.98;7.10;;;;;;;18.09;54.50;98253.25;4961828;29;20043;-74
2021/12/25 10:09:58;;;;;;;10.43;6.30;;;;;;;18.07;55.00;98257.78;4961998;29;20035;-74
2021/12/25 10:12:46;;;;;;;11.07;6.22;;;;;;;18.11;54.81;98264.53;4943428;29;20109;-77
2021/12/25 10:15:16;;;;;;;11.00;6.80;;;;;;;18.12;54.60;98266.25;4942526;29;20030;-74
2021/12/25 10:17:49;;;;;;;9.88;6.15;;;;;;;18.10;54.89;98273.41;4960261;29;20050;-73
2021/12/25 10:20:18;;;;;;;11.52;6.07;;;;;;;18.15;55.12;98276.59;4943284;29;20031;-73
2021/12/25 10:22:56;;;;;;;14.38;7.95;;;;;;;18.18;55.32;98276.41;4943070;29;20031;-74
2021/12/25 10:25:23;;;;;;;15.63;8.50;;;;;;;18.18;55.56;98265.84;4959920;28;20569;-73
2021/12/25 10:27:58;;;;;;;15.85;7.35;;;;;;;18.19;55.73;98266.66;4960200;29;20062;-74
2021/12/25 10:30:24;;;;;;;16.23;7.90;;;;;;;18.20;55.48;98261.28;4965079;29;20052;-73
2021/12/25 10:32:51;;;;;;;16.50;7.75;;;;;;;18.21;55.50;98255.03;4968765;29;20104;-74
2021/12/25 10:35:18;;;;;;;13.02;7.82;;;;;;;18.19;55.98;98241.13;4960768;28;20059;-74
2021/12/25 10:37:45;;;;;;;12.77;7.45;;;;;;;18.20;55.34;98234.88;4957880;29;20427;-74
2021/12/25 10:40:40;;;;;;;14.73;7.85;;;;;;;18.20;55.60;98236.66;4941231;29;20118;-74
2021/12/25 10:43:19;;;;;;;11.07;7.15;;;;;;;18.19;55.22;98235.84;4929904;29;20438;-73
2021/12/25 10:45:59;;;;;;;13.52;7.00;;;;;;;18.21;55.23;98238.38;4959053;28;20031;-74
2021/12/25 10:48:30;;;;;;;12.30;7.15;;;;;;;18.22;55.12;98246.16;4959094;29;20038;-74
2021/12/25 10:50:57;;;;;;;13.38;7.28;;;;;;;18.22;55.07;98235.59;4942213;29;20069;-74
2021/12/25 10:53:34;;;;;;;10.15;7.13;;;;;;;18.22;55.35;98240.06;4959862;29;20111;-74
2021/12/25 10:56:15;;;;;;;10.82;6.85;;;;;;;18.20;55.22;98241.94;4961188;28;20033;-74
2021/12/25 10:58:43;;;;;;;12.00;6.65;;;;;;;18.21;55.07;98244.47;4943184;29;20031;-74
2021/12/25 11:01:14;;;;;;;11.25;7.10;;;;;;;18.19;55.41;98251.69;4959469;29;20038;-74
2021/12/25 11:03:43;;;;;;;9.98;7.00;;;;;;;18.20;55.16;98247.22;4942682;29;20115;-74
2021/12/25 11:06:13;;;;;;;10.13;7.15;;;;;;;18.22;55.15;98253.25;4942698;29;20023;-74
2021/12/25 11:08:40;;;;;;;10.75;6.38;;;;;;;18.20;55.23;98248.06;4942256;29;20042;-74
2021/12/25 11:11:18;;;;;;;10.07;6.63;;;;;;;18.21;54.94;98241.00;4942417;29;20059;-74
2021/12/25 11:13:50;;;;;;;10.20;6.60;;;;;;;18.21;55.13;98233.91;4942725;29;20023;-74
2021/12/25 11:16:28;;;;;;;9.90;6.43;;;;;;;18.21;54.89;98227.81;4960728;28;20045;-74
2021/12/25 11:21:38;;;;;;;10.95;6.55;;;;;;;18.20;54.96;98234.03;4959488;29;20355;-74
2021/12/25 11:24:12;;;;;;;10.95;6.93;;;;;;;18.20;54.97;98232.22;4942271;28;20023;-74
2021/12/25 11:26:38;;;;;;;10.63;7.10;;;;;;;18.19;54.63;98225.28;4969976;29;20027;-74
2021/12/25 11:29:09;;;;;;;9.88;7.00;;;;;;;18.19;54.76;98220.00;4959936;29;20028;-74
2021/12/25 11:31:35;;;;;;;12.23;7.57;;;;;;;18.21;54.32;98222.53;4941687;29;20443;-74
2021/12/25 11:34:03;;;;;;;15.55;7.95;;;;;;;18.19;54.82;98217.34;4941851;28;20090;-74
2021/12/25 11:36:28;;;;;;;12.02;7.28;;;;;;;18.16;54.77;98217.53;4958774;29;20051;-74
2021/12/25 11:38:54;;;;;;;11.63;7.22;;;;;;;18.19;54.75;98217.34;4958906;29;20057;-74
2021/12/25 11:41:28;;;;;;;11.98;7.68;;;;;;;18.15;54.62;98213.22;4959404;29;20031;-75
2021/12/25 11:43:55;;;;;;;10.85;7.18;;;;;;;18.16;54.57;98209.63;4942878;29;20078;-73
2021/12/25 11:46:23;;;;;;;10.88;6.72;;;;;;;18.19;54.41;98211.22;4958422;28;20054;-73
2021/12/25 11:49:05;;;;;;;10.50;6.85;;;;;;;18.16;54.37;98204.34;4941629;29;20059;-73
2021/12/25 11:51:31;;;;;;;10.40;6.70;;;;;;;18.17;54.63;98200.78;4941597;29;20114;-74
2021/12/25 11:56:46;;;;;;;9.95;7.10;;;;;;;18.14;54.81;98197.47;4958651;29;20053;-74
2021/12/25 11:59:19;;;;;;;;;;;;;;;18.17;54.55;98184.94;4959114;29;20027;-74
2021/12/25 12:01:49;;;;;;;10.52;7.50;;;;;;;18.15;54.59;98186.81;4941292;29;19918;-74
2021/12/25 12:04:18;;;;;;;9.63;6.55;;;;;;;18.15;54.74;98186.81;4958752;28;20049;-74
2021/12/25 12:06:44;;;;;;;11.05;7.25;;;;;;;18.15;54.38;98194.75;4959573;29;20113;-74
2021/12/25 12:09:19;;;;;;;10.35;6.63;;;;;;;18.15;54.75;98192.09;4958189;29;20439;-74
2021/12/25 12:12:14;;;;;;;10.45;7.35;;;;;;;18.14;54.55;98185.13;4958521;29;20027;-74
2021/12/25 12:14:40;;;;;;;9.52;6.78;;;;;;;18.14;54.71;98182.50;4955941;28;20054;-73
2021/12/25 12:17:17;;;;;;;11.32;6.90;;;;;;;18.11;54.52;98180.06;4958165;29;20031;-73
2021/12/25 12:19:45;;;;;;;11.50;6.80;;;;;;;18.13;54.53;98182.59;4942683;29;20489;-74
2021/12/25 12:25:42;;;;;;;11.05;7.38;;;;;;;18.12;54.52;98176.50;4957978;28;20035;-74
2021/12/25 12:27:36;;;;;;;10.63;7.95;;;;;;;18.10;54.45;98178.38;4948213;29;20047;-74
2021/12/25 12:30:08;;;;;;;12.82;7.55;;;;;;;18.12;54.78;98181.78;4958027;29;20085;-74
2021/12/25 12:32:52;;;;;;;11.27;7.30;;;;;;;18.13;54.43;98178.19;4957860;29;20024;-74
2021/12/25 12:35:38;;;;;;;10.50;6.93;;;;;;;18.12;54.50;98173.84;4957737;28;20055;-74
2021/12/25 12:38:47;;;;;;;9.75;7.00;;;;;;;18.13;54.43;98175.53;4940318;29;20351;-74
2021/12/25 12:41:39;;;;;;;12.82;7.70;;;;;;;18.13;54.33;98174.69;4940697;29;20035;-74
2021/12/25 12:44:13;;;;;;;9.57;6.95;;;;;;;18.10;54.65;98176.59;4957952;28;20101;-74
2021/12/25 12:46:48;;;;;;;9.95;6.85;;;;;;;18.14;54.30;98179.00;4959278;29;20038;-74
2021/12/25 12:49:19;;;;;;;12.30;7.13;;;;;;;18.11;54.38;98177.41;4958247;29;20027;-74
2021/12/25 12:52:09;;;;;;;10.65;7.45;;;;;;;18.14;54.48;98179.84;4940479;29;20118;-74
2021/12/25 12:55:01;;;;;;;9.68;6.93;;;;;;;18.11;54.67;98180.06;4940394;29;20418;-74
2021/12/25 12:57:37;;;;;;;10.20;6.78;;;;;;;18.13;54.53;98180.81;4939725;29;20470;-74
2021/12/25 13:00:18;;;;;;;11.88;7.18;;;;;;;18.12;54.19;98176.50;4957522;29;20055;-74
2021/12/25 13:02:47;;;;;;;11.30;7.57;;;;;;;18.12;54.67;98176.50;4957546;29;20046;-74
2021/12/25 13:05:17;;;;;;;10.70;7.22;;;;;;;18.10;54.58;98179.22;4940567;28;20023;-74
2021/12/25 13:07:44;;;;;;;11.27;7.95;;;;;;;18.11;54.41;98169.50;4958798;28;20101;-74
2021/12/25 13:10:25;;;;;;;10.77;7.03;;;;;;;18.12;54.36;98165.94;4958409;28;20054;-74
2021/12/25 13:12:57;;;;;;;12.65;7.53;;;;;;;18.12;54.29;98165.94;4940246;29;20069;-74
2021/12/25 13:15:27;;;;;;;10.07;6.53;;;;;;;18.09;54.73;98160.84;4959014;28;20023;-74
2021/12/25 13:17:57;;;;;;;10.05;6.35;;;;;;;18.10;54.59;98165.19;4968693;29;20106;-74
2021/12/25 13:20:52;;;;;;;8.85;6.30;;;;;;;18.12;54.44;98160.66;4957045;29;20055;-74
2021/12/25 13:23:21;;;;;;;11.13;7.05;;;;;;;18.11;54.21;98165.06;4957214;29;20034;-74
2021/12/25 13:25:58;;;;;;;10.00;6.65;;;;;;;18.13;54.28;98166.75;4957137;28;20031;-74
2021/12/25 13:28:31;;;;;;;8.40;6.47;;;;;;;18.12;54.23;98168.56;4958517;29;20037;-74
2021/12/25 13:31:21;;;;;;;9.68;6.20;;;;;;;18.11;54.61;98157.16;4957023;29;20093;-74
2021/12/25 13:34:18;;;;;;;9.57;6.22;;;;;;;18.11;54.66;98158.94;4956535;29;20028;-74
2021/12/25 13:37:04;;;;;;;9.93;6.60;;;;;;;18.11;54.50;98164.22;4955352;28;20058;-74